Terminal Aerodrome Forecast
Issued by NWS Cleveland, OH

Home | Current Version | Previous Version | Text Only | Print | Product List | Glossary Off
Versions: 1 2 3 4 5 6 7 8 9 10 11 12 13 14 15 16 17 18 19 20 21 22

000
FTUS41 KCLE 281126
TAFCAK
TAF
KCAK 281126Z 2812/2912 24012KT 3SM -RA BR OVC003
     FM281600 30014G22KT 6SM BR VCSH OVC010
     FM282200 32012KT P6SM OVC025
     FM290300 27005KT P6SM BKN250=

USA.gov is the U.S. government's official web portal to all federal, state and local government web resources and services.